Time;durP1;ratioP1;P1;durP2;ratioP2;P2;SDS_P1;SDS_P2;PMS_P1;PMS_P2;Temp;Humidity;BMP_temperature;BMP_pressure;BME280_temperature;BME280_humidity;BME280_pressure;Samples;Min_cycle;Max_cycle;Signal;HPM_P1;HPM_P2
2023/03/01 00:02:19;;;;;;;;;;;;;;;;;;5096459;28;19915;-69
2023/03/01 00:04:45;;;;;;;;;;;;;;;;;;5095683;28;19908;-69
2023/03/01 00:07:11;;;;;;;;;;;;;;;;;;5096281;28;19994;-69
2023/03/01 00:09:37;;;;;;;;;;;;;;;;;;5095752;28;19973;-70
2023/03/01 00:12:03;;;;;;;;;;;;;;;;;;5095628;28;20315;-70
2023/03/01 00:14:29;;;;;;;;;;;;;;;;;;5077862;28;19908;-70
2023/03/01 00:16:55;;;;;;;;;;;;;;;;;;5096424;28;19908;-69
2023/03/01 00:19:21;;;;;;;;;;;;;;;;;;5095414;28;19908;-70
2023/03/01 00:21:47;;;;;;;;;;;;;;;;;;5095768;28;19908;-70
2023/03/01 00:24:13;;;;;;;;;;;;;;;;;;5095730;28;20374;-70
2023/03/01 00:26:39;;;;;;;;;;;;;;;;;;5095110;28;19916;-70
2023/03/01 00:29:05;;;;;;;;;;;;;;;;;;5077316;28;19916;-70
2023/03/01 00:31:31;;;;;;;;;;;;;;;;;;5095724;28;20011;-70
2023/03/01 00:33:57;;;;;;;;;;;;;;;;;;5076770;28;19911;-70
2023/03/01 00:36:23;;;;;;;;;;;;;;;;;;5095477;28;19974;-70
2023/03/01 00:38:49;;;;;;;;;;;;;;;;;;5095600;28;19908;-70
2023/03/01 00:41:15;;;;;;;;;;;;;;;;;;5076683;28;19908;-70
2023/03/01 00:43:41;;;;;;;;;;;;;;;;;;5095183;28;19959;-70
2023/03/01 00:46:07;;;;;;;;;;;;;;;;;;5095185;28;19909;-70
2023/03/01 00:48:33;;;;;;;;;;;;;;;;;;5076504;28;19912;-70
2023/03/01 00:50:59;;;;;;;;;;;;;;;;;;5095380;28;20313;-70
2023/03/01 00:53:25;;;;;;;;;;;;;;;;;;5075616;28;19915;-70
2023/03/01 00:55:51;;;;;;;;;;;;;;;;;;5094921;28;19908;-70
2023/03/01 00:58:16;;;;;;;;;;;;;;;;;;5076824;28;19908;-70
2023/03/01 01:00:42;;;;;;;;;;;;;;;;;;5094400;28;19908;-70
2023/03/01 01:03:08;;;;;;;;;;;;;;;;;;5094772;28;20228;-70
2023/03/01 01:05:34;;;;;;;;;;;;;;;;;;5076590;28;20012;-70
2023/03/01 01:08:00;;;;;;;;;;;;;;;;;;5075952;28;19914;-69
2023/03/01 01:10:26;;;;;;;;;;;;;;;;;;5094625;28;19963;-70
2023/03/01 01:12:52;;;;;;;;;;;;;;;;;;5076449;28;19908;-69
2023/03/01 01:15:18;;;;;;;;;;;;;;;;;;5094258;28;19915;-70
2023/03/01 01:17:44;;;;;;;;;;;;;;;;;;5076367;28;19939;-70
2023/03/01 01:20:10;;;;;;;;;;;;;;;;;;5094537;28;19908;-70
2023/03/01 01:22:36;;;;;;;;;;;;;;;;;;5075919;28;19950;-70
2023/03/01 01:25:02;;;;;;;;;;;;;;;;;;5094537;28;19908;-70
2023/03/01 01:27:28;;;;;;;;;;;;;;;;;;5094440;28;19909;-70
2023/03/01 01:29:54;;;;;;;;;;;;;;;;;;5075691;28;19969;-70
2023/03/01 01:32:19;;;;;;;;;;;;;;;;;;5076081;28;19908;-70
2023/03/01 01:34:46;;;;;;;;;;;;;;;;;;5094228;28;19912;-69
2023/03/01 01:37:12;;;;;;;;;;;;;;;;;;5093892;28;20368;-70
2023/03/01 01:54:57;;;;;;;;;;;;;;;;;;5056550;27;2099718;-66
2023/03/01 01:57:23;;;;;;;;;;;;;;;;;;5132023;28;19912;-66
2023/03/01 01:59:49;;;;;;;;;;;;;;;;;;5132114;28;19962;-66
2023/03/01 02:02:15;;;;;;;;;;;;;;;;;;5131329;28;19915;-66
2023/03/01 02:04:41;;;;;;;;;;;;;;;;;;5131853;28;19908;-66
2023/03/01 02:07:07;;;;;;;;;;;;;;;;;;5131739;28;20010;-66
2023/03/01 02:09:33;;;;;;;;;;;;;;;;;;5131376;28;19915;-66
2023/03/01 02:11:59;;;;;;;;;;;;;;;;;;5131647;28;19915;-66
2023/03/01 02:14:26;;;;;;;;;;;;;;;;;;5113196;28;19912;-66
2023/03/01 02:16:52;;;;;;;;;;;;;;;;;;5112765;28;19907;-66
2023/03/01 02:19:18;;;;;;;;;;;;;;;;;;5131472;28;19915;-66
2023/03/01 02:21:44;;;;;;;;;;;;;;;;;;5131650;28;19921;-66
2023/03/01 02:24:09;;;;;;;;;;;;;;;;;;5131074;28;19961;-66
2023/03/01 02:26:36;;;;;;;;;;;;;;;;;;5131336;28;19965;-66
2023/03/01 02:29:02;;;;;;;;;;;;;;;;;;5131298;28;19914;-66
2023/03/01 02:31:44;;;;;;;;;;;;;;;;;;5112501;28;19999;-67
2023/03/01 02:34:10;;;;;;;;;;;;;;;;;;5131508;28;19947;-66
2023/03/01 02:36:36;;;;;;;;;;;;;;;;;;5130824;28;20380;-66
2023/03/01 02:39:02;;;;;;;;;;;;;;;;;;5131167;28;20277;-67
2023/03/01 02:41:28;;;;;;;;;;;;;;;;;;5131258;28;20369;-66
2023/03/01 02:43:54;;;;;;;;;;;;;;;;;;5130584;28;20421;-66
2023/03/01 02:46:20;;;;;;;;;;;;;;;;;;5112528;28;19942;-66
2023/03/01 02:48:46;;;;;;;;;;;;;;;;;;5130962;28;19912;-66
2023/03/01 02:51:12;;;;;;;;;;;;;;;;;;5128636;28;20387;-65
2023/03/01 02:53:38;;;;;;;;;;;;;;;;;;5116862;28;20407;-66
2023/03/01 02:56:04;;;;;;;;;;;;;;;;;;5117156;28;19943;-67
2023/03/01 02:58:29;;;;;;;;;;;;;;;;;;5116720;28;19915;-67
2023/03/01 03:00:56;;;;;;;;;;;;;;;;;;5116913;28;19927;-66
2023/03/01 03:03:22;;;;;;;;;;;;;;;;;;5115347;28;19916;-67
2023/03/01 03:05:48;;;;;;;;;;;;;;;;;;5115637;28;19960;-66
2023/03/01 03:08:16;;;;;;;;;;;;;;;;;;5116852;28;19907;-67
2023/03/01 03:10:42;;;;;;;;;;;;;;;;;;5116806;28;20019;-67
2023/03/01 03:13:08;;;;;;;;;;;;;;;;;;5116621;28;19915;-67
2023/03/01 03:15:35;;;;;;;;;;;;;;;;;;5116472;28;19908;-67
2023/03/01 03:18:01;;;;;;;;;;;;;;;;;;5116643;28;19961;-66
2023/03/01 03:20:27;;;;;;;;;;;;;;;;;;5097984;28;19916;-66
2023/03/01 03:22:53;;;;;;;;;;;;;;;;;;5116585;28;19943;-66
2023/03/01 03:25:19;;;;;;;;;;;;;;;;;;5116534;28;19946;-66
2023/03/01 03:27:45;;;;;;;;;;;;;;;;;;5097847;28;19916;-66
2023/03/01 03:30:12;;;;;;;;;;;;;;;;;;5098265;28;19908;-66
2023/03/01 03:32:38;;;;;;;;;;;;;;;;;;5098230;28;19908;-66
2023/03/01 03:35:09;;;;;;;;;;;;;;;;;;5116017;28;20368;-66
2023/03/01 03:40:19;;;;;;;;;;;;;;;;;;5116191;28;20020;-66
2023/03/01 03:42:45;;;;;;;;;;;;;;;;;;5116241;28;19912;-66
2023/03/01 03:45:11;;;;;;;;;;;;;;;;;;5116148;28;19908;-66
2023/03/01 03:47:37;;;;;;;;;;;;;;;;;;5115536;28;19908;-66
2023/03/01 03:50:03;;;;;;;;;;;;;;;;;;5116168;28;20003;-66
2023/03/01 03:52:29;;;;;;;;;;;;;;;;;;5116071;28;19931;-66
2023/03/01 03:54:55;;;;;;;;;;;;;;;;;;5115515;28;19923;-66
2023/03/01 03:57:21;;;;;;;;;;;;;;;;;;5116203;28;19914;-66
2023/03/01 03:59:47;;;;;;;;;;;;;;;;;;5097594;28;19915;-66
2023/03/01 04:02:12;;;;;;;;;;;;;;;;;;5115550;28;19965;-67
2023/03/01 04:04:38;;;;;;;;;;;;;;;;;;5114962;28;19912;-66
2023/03/01 04:07:04;;;;;;;;;;;;;;;;;;5115696;28;19915;-67
2023/03/01 04:09:30;;;;;;;;;;;;;;;;;;5115350;28;19941;-67
2023/03/01 04:11:56;;;;;;;;;;;;;;;;;;5115726;28;19912;-67
2023/03/01 04:14:22;;;;;;;;;;;;;;;;;;5115642;28;19907;-67
2023/03/01 04:16:48;;;;;;;;;;;;;;;;;;5115224;28;19908;-67
2023/03/01 04:19:15;;;;;;;;;;;;;;;;;;5097620;28;19908;-66
2023/03/01 04:21:40;;;;;;;;;;;;;;;;;;5115394;28;19916;-67
2023/03/01 04:24:06;;;;;;;;;;;;;;;;;;5114998;28;20284;-67
2023/03/01 04:26:32;;;;;;;;;;;;;;;;;;5115377;28;20375;-67
2023/03/01 04:28:58;;;;;;;;;;;;;;;;;;5115804;28;19908;-67
2023/03/01 04:31:24;;;;;;;;;;;;;;;;;;5113793;28;19907;-67
2023/03/01 04:33:54;;;;;;;;;;;;;;;;;;5096310;28;19998;-67
2023/03/01 04:36:20;;;;;;;;;;;;;;;;;;5114828;28;20281;-67
2023/03/01 04:38:49;;;;;;;;;;;;;;;;;;5114024;28;19912;-67
2023/03/01 04:41:15;;;;;;;;;;;;;;;;;;5114966;28;19915;-67
2023/03/01 04:43:40;;;;;;;;;;;;;;;;;;5096374;28;19908;-67
2023/03/01 04:46:08;;;;;;;;;;;;;;;;;;5115172;28;19960;-67
2023/03/01 04:48:34;;;;;;;;;;;;;;;;;;5114929;28;19911;-66
2023/03/01 04:51:00;;;;;;;;;;;;;;;;;;5114554;28;20384;-66
2023/03/01 04:53:26;;;;;;;;;;;;;;;;;;5115021;28;20396;-66
2023/03/01 04:55:52;;;;;;;;;;;;;;;;;;5114929;28;19908;-65
2023/03/01 04:58:18;;;;;;;;;;;;;;;;;;5113959;28;19919;-66
2023/03/01 05:00:44;;;;;;;;;;;;;;;;;;5094824;28;20113;-66
2023/03/01 05:03:10;;;;;;;;;;;;;;;;;;5114509;28;19915;-66
2023/03/01 05:05:36;;;;;;;;;;;;;;;;;;5114410;28;20411;-66
2023/03/01 05:08:02;;;;;;;;;;;;;;;;;;5113314;28;19969;-66
2023/03/01 05:10:31;;;;;;;;;;;;;;;;;;5096211;28;19955;-66
2023/03/01 05:12:57;;;;;;;;;;;;;;;;;;5114155;28;19914;-66
2023/03/01 05:15:25;;;;;;;;;;;;;;;;;;5114166;28;20331;-66
2023/03/01 05:17:51;;;;;;;;;;;;;;;;;;5114409;28;19915;-66
2023/03/01 05:20:17;;;;;;;;;;;;;;;;;;5113951;28;19912;-66
2023/03/01 05:22:43;;;;;;;;;;;;;;;;;;5114382;28;19908;-66
2023/03/01 05:25:09;;;;;;;;;;;;;;;;;;5114224;28;19908;-67
2023/03/01 05:27:35;;;;;;;;;;;;;;;;;;5095835;28;19989;-66
2023/03/01 05:30:13;;;;;;;;;;;;;;;;;;5114608;28;19908;-66
2023/03/01 05:32:38;;;;;;;;;;;;;;;;;;5095171;28;20284;-66
2023/03/01 05:35:05;;;;;;;;;;;;;;;;;;5095633;28;20088;-66
2023/03/01 05:37:31;;;;;;;;;;;;;;;;;;5114227;28;20372;-66
2023/03/01 05:39:57;;;;;;;;;;;;;;;;;;5095390;28;19954;-66
2023/03/01 05:42:23;;;;;;;;;;;;;;;;;;5095865;28;19957;-66
2023/03/01 05:44:49;;;;;;;;;;;;;;;;;;5114136;28;19908;-66
2023/03/01 05:47:15;;;;;;;;;;;;;;;;;;5095443;28;19912;-66
2023/03/01 05:49:41;;;;;;;;;;;;;;;;;;5114303;28;19907;-65
2023/03/01 05:52:06;;;;;;;;;;;;;;;;;;5114072;28;19914;-65
2023/03/01 05:54:33;;;;;;;;;;;;;;;;;;5113468;28;19965;-66
2023/03/01 05:56:58;;;;;;;;;;;;;;;;;;5113990;28;19908;-66
2023/03/01 05:59:24;;;;;;;;;;;;;;;;;;5114323;28;20088;-66
2023/03/01 06:01:50;;;;;;;;;;;;;;;;;;5095293;28;19923;-66
2023/03/01 06:04:16;;;;;;;;;;;;;;;;;;5113968;28;20262;-66
2023/03/01 06:06:42;;;;;;;;;;;;;;;;;;5114242;28;19915;-66
2023/03/01 06:09:09;;;;;;;;;;;;;;;;;;5113477;28;19908;-66
2023/03/01 06:11:35;;;;;;;;;;;;;;;;;;5114050;28;19962;-67
2023/03/01 06:14:01;;;;;;;;;;;;;;;;;;5110668;28;19947;-71
2023/03/01 06:16:27;;;;;;;;;;;;;;;;;;5078780;28;19912;-69
2023/03/01 06:18:53;;;;;;;;;;;;;;;;;;5109556;28;19995;-70
2023/03/01 06:21:19;;;;;;;;;;;;;;;;;;5088393;28;20021;-72
2023/03/01 06:23:45;;;;;;;;;;;;;;;;;;5102363;28;20376;-68
2023/03/01 06:26:11;;;;;;;;;;;;;;;;;;5108656;28;20384;-67
2023/03/01 06:28:37;;;;;;;;;;;;;;;;;;5102822;28;20361;-68
2023/03/01 06:31:03;;;;;;;;;;;;;;;;;;5076662;28;19912;-68
2023/03/01 06:33:28;;;;;;;;;;;;;;;;;;5107210;28;20002;-68
2023/03/01 06:35:55;;;;;;;;;;;;;;;;;;5092363;28;19909;-68
2023/03/01 06:38:21;;;;;;;;;;;;;;;;;;5091987;28;19908;-68
2023/03/01 06:40:46;;;;;;;;;;;;;;;;;;5092119;28;19920;-68
2023/03/01 06:43:12;;;;;;;;;;;;;;;;;;5087134;28;19961;-67
2023/03/01 06:45:38;;;;;;;;;;;;;;;;;;5098924;28;20006;-67
2023/03/01 06:48:04;;;;;;;;;;;;;;;;;;5114105;28;19919;-68
2023/03/01 06:50:30;;;;;;;;;;;;;;;;;;5084123;28;19911;-67
2023/03/01 06:52:56;;;;;;;;;;;;;;;;;;5100337;28;20285;-66
2023/03/01 06:55:22;;;;;;;;;;;;;;;;;;5108461;28;20281;-67
2023/03/01 06:57:48;;;;;;;;;;;;;;;;;;5100401;28;19919;-68
2023/03/01 07:00:15;;;;;;;;;;;;;;;;;;5104608;28;19912;-68
2023/03/01 07:02:41;;;;;;;;;;;;;;;;;;5099980;28;19916;-69
2023/03/01 07:05:07;;;;;;;;;;;;;;;;;;5115206;28;20010;-67
2023/03/01 07:07:33;;;;;;;;;;;;;;;;;;5116109;28;19911;-66
2023/03/01 07:10:01;;;;;;;;;;;;;;;;;;5115851;28;20387;-67
2023/03/01 07:12:27;;;;;;;;;;;;;;;;;;5115767;28;19951;-67
2023/03/01 07:14:54;;;;;;;;;;;;;;;;;;5100858;28;19998;-67
2023/03/01 07:17:19;;;;;;;;;;;;;;;;;;5085166;28;19911;-67
2023/03/01 07:19:45;;;;;;;;;;;;;;;;;;5094052;28;19920;-67
2023/03/01 07:22:11;;;;;;;;;;;;;;;;;;5094971;28;19999;-68
2023/03/01 07:24:37;;;;;;;;;;;;;;;;;;5099121;28;19912;-68
2023/03/01 07:27:03;;;;;;;;;;;;;;;;;;5101760;28;19978;-70
2023/03/01 07:29:29;;;;;;;;;;;;;;;;;;5077685;27;20011;-69
2023/03/01 07:31:55;;;;;;;;;;;;;;;;;;5098668;28;19920;-68
2023/03/01 07:34:21;;;;;;;;;;;;;;;;;;5083945;28;19908;-69
2023/03/01 07:36:47;;;;;;;;;;;;;;;;;;5109050;28;19916;-68
2023/03/01 07:39:13;;;;;;;;;;;;;;;;;;5101925;28;20057;-67
2023/03/01 07:41:39;;;;;;;;;;;;;;;;;;5103551;28;20465;-68
2023/03/01 07:44:05;;;;;;;;;;;;;;;;;;5103281;28;20281;-68
2023/03/01 07:46:31;;;;;;;;;;;;;;;;;;5115094;28;19915;-68
2023/03/01 07:48:58;;;;;;;;;;;;;;;;;;5097065;28;19966;-68
2023/03/01 07:51:24;;;;;;;;;;;;;;;;;;5114047;28;19950;-68
2023/03/01 07:53:49;;;;;;;;;;;;;;;;;;5102751;28;19931;-68
2023/03/01 07:56:19;;;;;;;;;;;;;;;;;;5095877;28;19969;-68
2023/03/01 07:58:46;;;;;;;;;;;;;;;;;;5091487;28;19919;-68
2023/03/01 08:01:12;;;;;;;;;;;;;;;;;;5093901;28;19916;-68
2023/03/01 08:03:38;;;;;;;;;;;;;;;;;;5108911;28;20428;-67
2023/03/01 08:06:06;;;;;;;;;;;;;;;;;;5100099;27;19908;-67
2023/03/01 08:08:32;;;;;;;;;;;;;;;;;;5116420;27;19951;-68
2023/03/01 08:10:58;;;;;;;;;;;;;;;;;;5112077;27;19970;-67
2023/03/01 08:13:24;;;;;;;;;;;;;;;;;;5106190;28;19916;-66
2023/03/01 08:15:50;;;;;;;;;;;;;;;;;;5108012;28;19908;-67
2023/03/01 08:18:16;;;;;;;;;;;;;;;;;;5107695;27;19915;-66
2023/03/01 08:20:42;;;;;;;;;;;;;;;;;;5089423;28;19923;-67
2023/03/01 08:23:08;;;;;;;;;;;;;;;;;;5111425;28;19919;-67
2023/03/01 08:25:34;;;;;;;;;;;;;;;;;;5111192;28;19915;-67
2023/03/01 08:28:00;;;;;;;;;;;;;;;;;;5076387;28;20393;-68
2023/03/01 08:30:26;;;;;;;;;;;;;;;;;;5092898;28;19912;-67
2023/03/01 08:32:52;;;;;;;;;;;;;;;;;;5099962;28;19916;-67
2023/03/01 08:35:17;;;;;;;;;;;;;;;;;;5091706;28;19912;-67
2023/03/01 08:37:43;;;;;;;;;;;;;;;;;;5094411;28;19908;-67
2023/03/01 08:40:09;;;;;;;;;;;;;;;;;;5102629;28;19950;-67
2023/03/01 08:42:35;;;;;;;;;;;;;;;;;;5109876;28;19911;-67
2023/03/01 08:45:01;;;;;;;;;;;;;;;;;;5092041;28;19923;-67
2023/03/01 08:47:27;;;;;;;;;;;;;;;;;;5101783;28;19970;-67
2023/03/01 08:49:53;;;;;;;;;;;;;;;;;;5103434;28;19919;-68
2023/03/01 08:52:19;;;;;;;;;;;;;;;;;;5109097;27;20375;-69
2023/03/01 08:54:45;;;;;;;;;;;;;;;;;;5113240;28;19942;-68
2023/03/01 08:57:12;;;;;;;;;;;;;;;;;;5112112;28;19966;-68
2023/03/01 08:59:38;;;;;;;;;;;;;;;;;;5113371;28;19911;-69
2023/03/01 09:02:04;;;;;;;;;;;;;;;;;;5103575;28;19977;-69
2023/03/01 09:04:30;;;;;;;;;;;;;;;;;;5091658;28;19998;-69
2023/03/01 09:06:56;;;;;;;;;;;;;;;;;;5099130;28;20440;-69
2023/03/01 09:09:22;;;;;;;;;;;;;;;;;;5093383;28;20375;-70
2023/03/01 09:11:49;;;;;;;;;;;;;;;;;;5096849;28;19915;-69
2023/03/01 09:14:15;;;;;;;;;;;;;;;;;;5109628;28;20266;-69
2023/03/01 09:16:41;;;;;;;;;;;;;;;;;;5104927;28;19923;-70
2023/03/01 09:19:07;;;;;;;;;;;;;;;;;;5104785;28;19912;-70
2023/03/01 09:21:33;;;;;;;;;;;;;;;;;;5108919;28;19916;-70
2023/03/01 09:23:59;;;;;;;;;;;;;;;;;;5109164;28;20073;-70
2023/03/01 09:26:25;;;;;;;;;;;;;;;;;;5079416;28;19920;-71
2023/03/01 09:28:51;;;;;;;;;;;;;;;;;;5097529;28;20008;-70
2023/03/01 09:31:17;;;;;;;;;;;;;;;;;;5110590;28;19912;-71
2023/03/01 09:33:43;;;;;;;;;;;;;;;;;;5105526;28;19912;-69
2023/03/01 09:36:09;;;;;;;;;;;;;;;;;;5109309;28;19907;-68
2023/03/01 09:38:35;;;;;;;;;;;;;;;;;;5090099;28;20472;-72
2023/03/01 09:41:01;;;;;;;;;;;;;;;;;;5112341;28;19935;-71
2023/03/01 09:43:27;;;;;;;;;;;;;;;;;;5110960;28;19912;-71
2023/03/01 09:45:53;;;;;;;;;;;;;;;;;;5105396;28;20007;-70
2023/03/01 09:48:21;;;;;;;;;;;;;;;;;;5091256;28;20531;-70
2023/03/01 09:50:47;;;;;;;;;;;;;;;;;;5100169;28;19916;-68
2023/03/01 09:53:13;;;;;;;;;;;;;;;;;;5096651;28;19919;-67
2023/03/01 09:55:39;;;;;;;;;;;;;;;;;;5104585;28;19920;-70
2023/03/01 09:58:05;;;;;;;;;;;;;;;;;;5084845;28;19972;-70
2023/03/01 10:00:31;;;;;;;;;;;;;;;;;;5109784;28;19912;-69
2023/03/01 10:02:59;;;;;;;;;;;;;;;;;;5114571;28;19922;-70
2023/03/01 10:05:25;;;;;;;;;;;;;;;;;;5098497;28;19912;-69
2023/03/01 10:07:51;;;;;;;;;;;;;;;;;;5115404;28;20303;-68
2023/03/01 10:10:17;;;;;;;;;;;;;;;;;;5095879;28;19972;-70
2023/03/01 10:12:43;;;;;;;;;;;;;;;;;;5109936;28;19956;-68
2023/03/01 10:15:11;;;;;;;;;;;;;;;;;;5078563;28;19943;-70
2023/03/01 10:17:37;;;;;;;;;;;;;;;;;;5096252;27;19912;-70
2023/03/01 10:20:03;;;;;;;;;;;;;;;;;;5098476;28;19912;-70
2023/03/01 10:22:29;;;;;;;;;;;;;;;;;;5112947;28;19919;-70
2023/03/01 10:24:55;;;;;;;;;;;;;;;;;;5109221;28;19941;-71
2023/03/01 10:27:21;;;;;;;;;;;;;;;;;;5110546;27;20340;-70
2023/03/01 10:29:47;;;;;;;;;;;;;;;;;;5087639;27;19935;-71
2023/03/01 10:32:13;;;;;;;;;;;;;;;;;;5117062;27;20364;-71
2023/03/01 10:34:39;;;;;;;;;;;;;;;;;;5105597;28;20361;-68
2023/03/01 10:37:05;;;;;;;;;;;;;;;;;;5096283;28;19939;-68
2023/03/01 10:39:31;;;;;;;;;;;;;;;;;;5096805;28;20418;-68
2023/03/01 10:41:57;;;;;;;;;;;;;;;;;;5115486;28;19916;-68
2023/03/01 10:44:23;;;;;;;;;;;;;;;;;;5115939;28;19908;-68
2023/03/01 10:46:49;;;;;;;;;;;;;;;;;;5115743;28;19912;-68
2023/03/01 10:49:15;;;;;;;;;;;;;;;;;;5115950;28;19964;-68
2023/03/01 10:51:41;;;;;;;;;;;;;;;;;;5115055;28;19911;-68
2023/03/01 10:54:07;;;;;;;;;;;;;;;;;;5114280;28;19920;-68
2023/03/01 10:56:33;;;;;;;;;;;;;;;;;;5095300;28;19953;-68
2023/03/01 10:58:59;;;;;;;;;;;;;;;;;;5113379;28;19937;-68
2023/03/01 11:01:25;;;;;;;;;;;;;;;;;;5110218;27;19924;-68
2023/03/01 11:03:51;;;;;;;;;;;;;;;;;;5111828;28;20326;-68
2023/03/01 11:06:17;;;;;;;;;;;;;;;;;;5108449;28;19961;-69
2023/03/01 11:08:43;;;;;;;;;;;;;;;;;;5114861;28;19912;-69
2023/03/01 11:11:09;;;;;;;;;;;;;;;;;;5114245;28;19996;-68
2023/03/01 11:13:35;;;;;;;;;;;;;;;;;;5082361;28;20027;-69
2023/03/01 11:16:01;;;;;;;;;;;;;;;;;;5105269;28;19912;-69
2023/03/01 11:18:27;;;;;;;;;;;;;;;;;;5114193;28;19942;-69
2023/03/01 11:20:53;;;;;;;;;;;;;;;;;;5093078;28;20308;-68
2023/03/01 11:23:19;;;;;;;;;;;;;;;;;;5105032;27;19923;-69
2023/03/01 11:25:45;;;;;;;;;;;;;;;;;;5100525;27;19922;-69
2023/03/01 11:28:11;;;;;;;;;;;;;;;;;;5093833;28;20270;-72
2023/03/01 11:30:37;;;;;;;;;;;;;;;;;;5096248;28;19916;-71
2023/03/01 11:33:03;;;;;;;;;;;;;;;;;;5095629;28;19923;-70
2023/03/01 11:35:29;;;;;;;;;;;;;;;;;;5099617;28;19920;-69
2023/03/01 11:37:55;;;;;;;;;;;;;;;;;;5086527;28;19911;-68
2023/03/01 11:40:20;;;;;;;;;;;;;;;;;;5077665;28;19923;-69
2023/03/01 11:42:46;;;;;;;;;;;;;;;;;;5096134;28;19912;-69
2023/03/01 11:45:13;;;;;;;;;;;;;;;;;;5089307;28;20297;-68
2023/03/01 11:47:39;;;;;;;;;;;;;;;;;;5102063;28;19919;-68
2023/03/01 11:50:04;;;;;;;;;;;;;;;;;;5112849;28;19908;-69
2023/03/01 11:52:32;;;;;;;;;;;;;;;;;;5096641;28;19916;-68
2023/03/01 11:54:58;;;;;;;;;;;;;;;;;;5108719;28;20015;-68
2023/03/01 11:57:25;;;;;;;;;;;;;;;;;;5105424;27;19935;-70
2023/03/01 11:59:51;;;;;;;;;;;;;;;;;;5096183;28;19942;-68
2023/03/01 12:02:17;;;;;;;;;;;;;;;;;;5103573;27;19923;-68
2023/03/01 12:04:43;;;;;;;;;;;;;;;;;;5101162;28;19912;-69
2023/03/01 12:07:09;;;;;;;;;;;;;;;;;;5100103;28;19923;-69
2023/03/01 12:09:35;;;;;;;;;;;;;;;;;;5097627;28;19919;-69
2023/03/01 12:12:01;;;;;;;;;;;;;;;;;;5096608;28;19908;-69
2023/03/01 12:14:27;;;;;;;;;;;;;;;;;;5105728;28;19912;-68
2023/03/01 12:16:53;;;;;;;;;;;;;;;;;;5090933;28;19962;-69
2023/03/01 12:19:19;;;;;;;;;;;;;;;;;;5100473;28;19918;-69
2023/03/01 12:21:45;;;;;;;;;;;;;;;;;;5101837;28;19983;-70
2023/03/01 12:24:11;;;;;;;;;;;;;;;;;;5091638;28;19959;-69
2023/03/01 12:26:37;;;;;;;;;;;;;;;;;;5098132;28;19916;-69
2023/03/01 12:29:03;;;;;;;;;;;;;;;;;;5090943;28;19919;-70
2023/03/01 12:31:29;;;;;;;;;;;;;;;;;;5076994;28;19911;-70
2023/03/01 12:33:55;;;;;;;;;;;;;;;;;;5105049;28;20006;-69
2023/03/01 12:36:21;;;;;;;;;;;;;;;;;;5108437;28;19920;-69
2023/03/01 12:38:47;;;;;;;;;;;;;;;;;;5099707;28;19935;-69
2023/03/01 12:41:13;;;;;;;;;;;;;;;;;;5109055;28;20004;-69
2023/03/01 12:43:39;;;;;;;;;;;;;;;;;;5084556;28;19908;-69
2023/03/01 12:46:06;;;;;;;;;;;;;;;;;;5087629;28;20014;-68
2023/03/01 12:48:32;;;;;;;;;;;;;;;;;;5092224;28;19916;-69
2023/03/01 12:50:58;;;;;;;;;;;;;;;;;;5074354;28;19938;-70
2023/03/01 12:53:24;;;;;;;;;;;;;;;;;;5092950;28;19919;-69
2023/03/01 12:55:50;;;;;;;;;;;;;;;;;;5092656;28;19916;-69
2023/03/01 12:58:16;;;;;;;;;;;;;;;;;;5092399;28;19919;-69
2023/03/01 13:00:42;;;;;;;;;;;;;;;;;;5091446;28;19915;-69
2023/03/01 13:03:08;;;;;;;;;;;;;;;;;;5081680;28;19920;-69
2023/03/01 13:05:34;;;;;;;;;;;;;;;;;;5116405;27;19934;-69
2023/03/01 13:08:00;;;;;;;;;;;;;;;;;;5091962;28;19912;-69
2023/03/01 13:10:26;;;;;;;;;;;;;;;;;;5097561;28;20400;-69
2023/03/01 13:12:52;;;;;;;;;;;;;;;;;;5115452;27;20014;-70
2023/03/01 13:15:18;;;;;;;;;;;;;;;;;;5106994;27;19919;-70
2023/03/01 13:17:44;;;;;;;;;;;;;;;;;;5110946;28;19916;-70
2023/03/01 13:20:10;;;;;;;;;;;;;;;;;;5111929;28;19912;-70
2023/03/01 13:22:36;;;;;;;;;;;;;;;;;;5104132;28;19920;-70
2023/03/01 13:25:02;;;;;;;;;;;;;;;;;;5097977;27;19916;-70
2023/03/01 13:27:29;;;;;;;;;;;;;;;;;;5101810;28;20258;-70
2023/03/01 13:29:55;;;;;;;;;;;;;;;;;;5084253;28;19923;-70
2023/03/01 13:32:21;;;;;;;;;;;;;;;;;;5100924;28;19913;-70
2023/03/01 13:34:47;;;;;;;;;;;;;;;;;;5083294;28;20332;-70
2023/03/01 13:37:13;;;;;;;;;;;;;;;;;;5098550;28;20014;-70
2023/03/01 13:39:39;;;;;;;;;;;;;;;;;;5102469;28;19915;-69
2023/03/01 13:42:05;;;;;;;;;;;;;;;;;;5101636;28;20153;-69
2023/03/01 13:44:31;;;;;;;;;;;;;;;;;;5099262;28;20528;-69
2023/03/01 13:46:57;;;;;;;;;;;;;;;;;;5084665;28;19979;-71
2023/03/01 13:49:22;;;;;;;;;;;;;;;;;;5087976;28;19918;-70
2023/03/01 13:51:48;;;;;;;;;;;;;;;;;;5092358;28;19928;-71
2023/03/01 13:54:14;;;;;;;;;;;;;;;;;;5073094;28;19920;-69
2023/03/01 13:56:40;;;;;;;;;;;;;;;;;;5103453;28;19957;-70
2023/03/01 13:59:06;;;;;;;;;;;;;;;;;;5111092;28;20002;-70
2023/03/01 14:01:32;;;;;;;;;;;;;;;;;;5111602;28;19920;-71
2023/03/01 14:03:58;;;;;;;;;;;;;;;;;;5095565;28;19916;-70
2023/03/01 14:06:24;;;;;;;;;;;;;;;;;;5099775;28;19919;-69
2023/03/01 14:08:50;;;;;;;;;;;;;;;;;;5108204;28;19919;-68
2023/03/01 14:11:16;;;;;;;;;;;;;;;;;;5096429;28;19916;-70
2023/03/01 14:13:42;;;;;;;;;;;;;;;;;;5092042;28;20127;-73
2023/03/01 14:16:08;;;;;;;;;;;;;;;;;;5089986;28;20549;-69
2023/03/01 14:18:34;;;;;;;;;;;;;;;;;;5071726;28;19912;-69
2023/03/01 14:21:00;;;;;;;;;;;;;;;;;;5093286;28;20003;-68
2023/03/01 14:23:26;;;;;;;;;;;;;;;;;;5102028;28;19920;-68
2023/03/01 14:25:52;;;;;;;;;;;;;;;;;;5106723;28;19908;-68
2023/03/01 14:28:18;;;;;;;;;;;;;;;;;;5108327;28;20359;-68
2023/03/01 14:30:44;;;;;;;;;;;;;;;;;;5092079;28;19908;-69
2023/03/01 14:33:10;;;;;;;;;;;;;;;;;;5092248;28;19940;-69
2023/03/01 14:35:36;;;;;;;;;;;;;;;;;;5091677;28;19915;-69
2023/03/01 14:38:02;;;;;;;;;;;;;;;;;;5092652;28;19908;-68
2023/03/01 14:40:28;;;;;;;;;;;;;;;;;;5093104;28;19948;-69
2023/03/01 14:42:54;;;;;;;;;;;;;;;;;;5092949;28;19916;-69
2023/03/01 14:45:20;;;;;;;;;;;;;;;;;;5093306;28;19908;-68
2023/03/01 14:47:46;;;;;;;;;;;;;;;;;;5093943;28;19908;-68
2023/03/01 14:50:12;;;;;;;;;;;;;;;;;;5096531;28;19968;-68
2023/03/01 14:52:38;;;;;;;;;;;;;;;;;;5096932;28;19912;-69
2023/03/01 14:55:04;;;;;;;;;;;;;;;;;;5095436;28;19927;-69
2023/03/01 14:57:30;;;;;;;;;;;;;;;;;;5096800;28;19909;-68
2023/03/01 14:59:56;;;;;;;;;;;;;;;;;;5096655;28;19908;-68
2023/03/01 15:02:22;;;;;;;;;;;;;;;;;;5078113;28;20026;-68
2023/03/01 15:04:48;;;;;;;;;;;;;;;;;;5078518;28;19955;-68
2023/03/01 15:07:14;;;;;;;;;;;;;;;;;;5096607;28;19908;-68
2023/03/01 15:09:40;;;;;;;;;;;;;;;;;;5096405;28;19908;-69
2023/03/01 15:12:06;;;;;;;;;;;;;;;;;;5096514;28;19909;-67
2023/03/01 15:14:32;;;;;;;;;;;;;;;;;;5096783;28;19908;-69
2023/03/01 15:16:58;;;;;;;;;;;;;;;;;;5095971;28;19908;-69
2023/03/01 15:19:24;;;;;;;;;;;;;;;;;;5096669;28;19938;-68
2023/03/01 15:21:50;;;;;;;;;;;;;;;;;;5096320;28;19920;-68
2023/03/01 15:24:19;;;;;;;;;;;;;;;;;;5095907;28;19915;-68
2023/03/01 15:26:46;;;;;;;;;;;;;;;;;;5096475;28;20419;-68
2023/03/01 15:29:16;;;;;;;;;;;;;;;;;;5096216;28;19953;-68
2023/03/01 15:31:42;;;;;;;;;;;;;;;;;;5095701;28;20353;-68
2023/03/01 15:34:08;;;;;;;;;;;;;;;;;;5077894;28;19908;-68
2023/03/01 15:36:34;;;;;;;;;;;;;;;;;;5096324;28;19909;-68
2023/03/01 15:39:00;;;;;;;;;;;;;;;;;;5077344;28;19914;-68
2023/03/01 15:41:26;;;;;;;;;;;;;;;;;;5095868;28;19920;-68
2023/03/01 15:43:55;;;;;;;;;;;;;;;;;;5095903;28;19908;-69
2023/03/01 15:46:21;;;;;;;;;;;;;;;;;;5095567;28;19977;-68
2023/03/01 15:48:49;;;;;;;;;;;;;;;;;;5095767;28;19916;-68
2023/03/01 15:51:15;;;;;;;;;;;;;;;;;;5095740;28;20495;-69
2023/03/01 15:53:41;;;;;;;;;;;;;;;;;;5077518;28;19920;-69
2023/03/01 15:56:07;;;;;;;;;;;;;;;;;;5095962;28;19909;-68
2023/03/01 15:58:33;;;;;;;;;;;;;;;;;;5095375;28;19908;-69
2023/03/01 16:00:59;;;;;;;;;;;;;;;;;;5077377;28;19923;-68
2023/03/01 16:03:25;;;;;;;;;;;;;;;;;;5095494;28;20530;-68
2023/03/01 16:05:51;;;;;;;;;;;;;;;;;;5095266;28;19912;-68
2023/03/01 16:08:16;;;;;;;;;;;;;;;;;;5095248;28;19908;-68
2023/03/01 16:10:46;;;;;;;;;;;;;;;;;;5095348;28;19961;-68
2023/03/01 16:13:12;;;;;;;;;;;;;;;;;;5076802;28;20377;-68
2023/03/01 16:15:39;;;;;;;;;;;;;;;;;;5095771;28;20028;-68
2023/03/01 16:18:10;;;;;;;;;;;;;;;;;;5095358;28;19954;-68
2023/03/01 16:20:35;;;;;;;;;;;;;;;;;;5094629;28;19916;-68
2023/03/01 16:23:01;;;;;;;;;;;;;;;;;;5095111;28;19938;-68
2023/03/01 16:25:27;;;;;;;;;;;;;;;;;;5094823;28;20383;-69
2023/03/01 16:27:55;;;;;;;;;;;;;;;;;;5094736;28;20373;-69
2023/03/01 16:30:21;;;;;;;;;;;;;;;;;;5094983;28;20360;-69
2023/03/01 16:32:46;;;;;;;;;;;;;;;;;;5076800;28;19958;-68
2023/03/01 16:35:12;;;;;;;;;;;;;;;;;;5094515;28;20353;-69
2023/03/01 16:37:38;;;;;;;;;;;;;;;;;;5095459;28;20357;-68
2023/03/01 16:40:04;;;;;;;;;;;;;;;;;;5094775;28;20429;-68
2023/03/01 16:42:30;;;;;;;;;;;;;;;;;;5094521;28;20432;-68
2023/03/01 16:44:56;;;;;;;;;;;;;;;;;;5094718;28;19908;-67
2023/03/01 16:47:22;;;;;;;;;;;;;;;;;;5076579;28;19909;-69
2023/03/01 16:49:48;;;;;;;;;;;;;;;;;;5094306;28;19915;-69
2023/03/01 16:52:14;;;;;;;;;;;;;;;;;;5094549;28;20003;-68
2023/03/01 16:54:40;;;;;;;;;;;;;;;;;;5094129;28;19928;-70
2023/03/01 16:57:06;;;;;;;;;;;;;;;;;;5094463;28;20323;-69